Time;durP1;ratioP1;P1;durP2;ratioP2;P2;SDS_P1;SDS_P2;PMS_P1;PMS_P2;Temp;Humidity;BMP_temperature;BMP_pressure;BME280_temperature;BME280_humidity;BME280_pressure;Samples;Min_cycle;Max_cycle;Signal;HPM_P1;HPM_P2
2022/09/05 00:00:10;;;;;;;2.00;1.30;;;;;;;19.29;70.25;101264.75;5184331;28;20025;-73
2022/09/05 00:03:12;;;;;;;5.03;1.83;;;;;;;19.29;70.34;101262.94;5187535;28;20035;-72
2022/09/05 00:06:08;;;;;;;2.90;1.48;;;;;;;19.20;70.85;101271.47;5188028;28;20495;-72
2022/09/05 00:08:51;;;;;;;2.73;1.60;;;;;;;19.23;70.60;101260.69;5177234;28;20269;-73
2022/09/05 00:11:33;;;;;;;4.32;1.60;;;;;;;19.24;70.72;101265.03;5185361;28;20030;-71
2022/09/05 00:14:07;;;;;;;3.00;1.67;;;;;;;19.24;70.69;101274.78;5189708;28;20501;-72
2022/09/05 00:17:15;;;;;;;2.50;1.63;;;;;;;19.09;71.60;101276.50;5190445;28;20040;-72
2022/09/05 00:20:01;;;;;;;3.53;1.73;;;;;;;19.08;71.44;101273.97;5184562;28;20109;-73
2022/09/05 00:22:40;;;;;;;3.15;1.75;;;;;;;18.99;72.28;101274.50;5187007;28;20092;-72
2022/09/05 00:25:19;;;;;;;3.90;1.83;;;;;;;19.04;71.86;101265.34;5182506;28;20123;-73
2022/09/05 00:27:49;;;;;;;1.98;1.30;;;;;;;18.94;72.95;101271.28;5174182;28;20040;-72
2022/09/05 00:30:20;;;;;;;2.88;1.70;;;;;;;18.84;74.05;101265.66;5179909;28;20025;-72
2022/09/05 00:33:22;;;;;;;2.92;1.70;;;;;;;18.70;75.15;101261.25;5190792;28;20491;-72
2022/09/05 00:35:58;;;;;;;2.35;1.60;;;;;;;18.67;74.82;101264.09;5185610;28;20033;-73
2022/09/05 00:38:30;;;;;;;3.28;1.80;;;;;;;18.63;75.08;101266.03;5188391;28;20344;-72
2022/09/05 00:41:08;;;;;;;4.32;1.55;;;;;;;18.62;75.08;101272.28;5190619;28;20383;-72
2022/09/05 00:43:46;;;;;;;2.88;1.50;;;;;;;18.58;75.67;101265.47;5188227;28;20472;-72
2022/09/05 00:46:23;;;;;;;4.50;1.90;;;;;;;18.53;75.57;101264.84;5183845;28;20144;-72
2022/09/05 00:49:14;;;;;;;2.65;1.35;;;;;;;18.51;75.42;101266.75;5189019;28;20155;-73
2022/09/05 00:52:04;;;;;;;3.30;1.83;;;;;;;18.65;74.15;101268.63;5185397;28;20033;-73
2022/09/05 00:55:02;;;;;;;3.80;1.95;;;;;;;18.74;74.06;101274.22;5178988;28;20026;-73
2022/09/05 00:58:06;;;;;;;8.35;1.73;;;;;;;18.77;74.18;101272.25;5187760;28;20364;-72
2022/09/05 01:00:52;;;;;;;2.95;1.63;;;;;;;18.72;74.37;101265.50;5182294;28;20025;-72
2022/09/05 01:03:31;;;;;;;4.73;1.90;;;;;;;18.69;74.41;101270.13;5184220;28;20030;-73
2022/09/05 01:06:07;;;;;;;2.45;1.83;;;;;;;18.61;74.81;101267.06;5188643;28;20276;-72
2022/09/05 01:08:56;;;;;;;2.70;1.73;;;;;;;18.55;74.95;101268.25;5229198;22;20048;-77
2022/09/05 01:11:45;;;;;;;5.38;1.88;;;;;;;18.59;74.82;101269.81;5212874;28;20028;-77
2022/09/05 01:14:24;;;;;;;3.75;1.90;;;;;;;18.77;74.18;101272.25;5203512;28;20033;-77
2022/09/05 01:17:21;;;;;;;3.58;2.03;;;;;;;18.73;74.32;101278.66;5208377;28;20064;-77
2022/09/05 01:20:10;;;;;;;;;;;;;;;18.80;74.28;101269.41;5138987;28;20552;-76
2022/09/05 01:22:55;;;;;;;3.75;1.88;;;;;;;18.81;74.73;101275.56;5204009;28;19956;-76
2022/09/05 01:26:02;;;;;;;5.60;2.10;;;;;;;18.80;75.00;101271.22;5203689;28;20028;-76
2022/09/05 01:28:45;;;;;;;5.35;2.30;;;;;;;18.97;74.62;101274.56;5207246;28;20056;-77
2022/09/05 01:31:21;;;;;;;4.38;2.10;;;;;;;19.04;74.49;101275.06;5196428;28;20028;-76
2022/09/05 01:34:03;;;;;;;4.45;2.10;;;;;;;19.04;74.77;101272.41;5189437;28;20040;-76
2022/09/05 01:36:52;;;;;;;3.65;2.00;;;;;;;19.00;74.77;101276.19;5208980;28;20025;-76
2022/09/05 01:39:42;;;;;;;3.65;2.33;;;;;;;18.87;75.34;101270.78;5205475;28;20026;-77
2022/09/05 01:42:46;;;;;;;3.53;2.00;;;;;;;18.88;75.54;101274.25;5203660;28;20053;-76
2022/09/05 01:45:24;;;;;;;4.82;2.15;;;;;;;18.81;75.71;101272.94;5202788;28;20086;-77
2022/09/05 01:48:07;;;;;;;3.67;2.30;;;;;;;18.79;75.96;101277.47;5208664;28;20111;-76
2022/09/05 01:51:12;;;;;;;6.15;2.65;;;;;;;18.85;75.92;101270.00;5211201;28;20079;-76
2022/09/05 01:53:45;;;;;;;3.28;2.30;;;;;;;18.89;75.93;101276.84;5172995;28;20033;-76
2022/09/05 01:56:52;;;;;;;5.53;2.30;;;;;;;18.89;75.98;101268.88;5209131;28;20045;-76
2022/09/05 01:59:26;;;;;;;3.38;2.08;;;;;;;18.88;76.25;101276.91;5205457;28;20511;-77
2022/09/05 02:02:17;;;;;;;4.20;2.35;;;;;;;18.84;76.75;101268.31;5208741;28;20446;-75
2022/09/05 02:05:19;;;;;;;4.90;2.20;;;;;;;18.76;77.19;101277.66;5202739;28;20037;-76
2022/09/05 02:08:01;;;;;;;7.45;2.20;;;;;;;18.75;76.90;101276.78;5184699;28;20115;-75
2022/09/05 02:11:02;;;;;;;3.92;2.08;;;;;;;18.76;77.45;101275.00;5199114;28;20048;-76
2022/09/05 02:13:33;;;;;;;3.83;2.33;;;;;;;18.68;77.75;101268.44;5190133;28;20025;-77
2022/09/05 02:16:15;;;;;;;4.27;2.10;;;;;;;18.73;77.50;101270.72;5208481;28;20029;-76
2022/09/05 02:19:13;;;;;;;3.95;2.30;;;;;;;18.79;77.59;101275.66;5201621;28;20305;-76
2022/09/05 02:22:04;;;;;;;4.45;2.53;;;;;;;18.66;78.13;101275.63;5196942;28;20445;-76
2022/09/05 02:24:37;;;;;;;4.50;2.30;;;;;;;18.79;77.73;101273.00;5185810;28;20144;-76
2022/09/05 02:27:25;;;;;;;4.18;2.50;;;;;;;18.74;77.92;101269.78;5212805;28;20597;-77
2022/09/05 02:30:11;;;;;;;5.65;2.50;;;;;;;18.66;78.20;101276.47;5210301;28;20022;-77
2022/09/05 02:33:02;;;;;;;;;;;;;;;18.65;78.53;101271.25;5211329;28;20030;-75
2022/09/05 02:35:32;;;;;;;6.13;2.50;;;;;;;18.53;79.01;101267.50;5211791;28;19916;-76
2022/09/05 02:38:16;;;;;;;3.00;2.22;;;;;;;18.49;78.98;101267.78;5210971;28;20051;-76
2022/09/05 02:40:56;;;;;;;4.20;2.50;;;;;;;18.54;79.14;101265.72;5201633;28;20035;-77
2022/09/05 02:43:40;;;;;;;5.18;2.60;;;;;;;18.47;79.73;101259.06;5208166;28;20554;-76
2022/09/05 02:46:19;;;;;;;6.10;2.53;;;;;;;18.40;80.73;101268.28;5210178;28;20057;-75
2022/09/05 02:48:56;;;;;;;3.97;2.47;;;;;;;18.26;81.07;101266.41;5207335;28;20025;-77
2022/09/05 02:51:34;;;;;;;5.50;2.70;;;;;;;18.49;79.83;101262.50;5212320;28;20029;-77
2022/09/05 02:54:29;;;;;;;5.20;2.65;;;;;;;18.37;80.92;101260.53;5200777;28;20021;-76
2022/09/05 02:57:26;;;;;;;5.45;2.85;;;;;;;18.52;80.53;101257.84;5209756;28;20498;-76
2022/09/05 03:00:07;;;;;;;7.28;2.88;;;;;;;18.55;80.55;101268.25;5209445;28;20029;-76
2022/09/05 03:02:49;;;;;;;7.50;2.45;;;;;;;18.54;80.62;101263.06;5210923;28;20032;-76
2022/09/05 03:05:26;;;;;;;6.95;3.28;;;;;;;18.48;81.04;101266.91;5208266;28;20061;-76
2022/09/05 03:08:08;;;;;;;4.35;2.70;;;;;;;18.32;82.25;101254.66;5211050;28;20025;-77
2022/09/05 03:11:16;;;;;;;4.05;2.63;;;;;;;18.28;82.38;101259.25;5206019;28;20430;-77
2022/09/05 03:13:58;;;;;;;4.68;2.95;;;;;;;18.22;82.33;101249.00;5210273;28;20037;-76
2022/09/05 03:16:50;;;;;;;5.05;2.30;;;;;;;18.09;83.78;101249.75;5211637;28;20057;-76
2022/09/05 03:20:02;;;;;;;5.95;3.30;;;;;;;17.99;84.14;101245.91;5207927;28;20025;-76
2022/09/05 03:22:55;;;;;;;4.68;2.90;;;;;;;17.95;84.58;101250.50;5208632;28;20390;-76
2022/09/05 03:26:01;;;;;;;5.93;2.95;;;;;;;18.00;84.02;101242.31;5205938;28;20025;-76
2022/09/05 03:29:02;;;;;;;5.07;3.13;;;;;;;17.98;84.35;101249.50;5210418;28;20022;-76
2022/09/05 03:31:52;;;;;;;4.32;2.92;;;;;;;17.89;85.29;101253.50;5172662;28;20033;-77
2022/09/05 03:34:44;;;;;;;4.70;3.03;;;;;;;17.84;85.44;101252.03;5208122;28;20388;-76
2022/09/05 03:37:49;;;;;;;5.93;3.13;;;;;;;17.81;85.73;101242.47;5185587;28;20057;-76
2022/09/05 03:40:48;;;;;;;4.95;3.15;;;;;;;17.71;86.73;101251.00;5167377;28;20045;-76
2022/09/05 03:43:30;;;;;;;4.82;3.17;;;;;;;17.80;85.44;101256.63;5206000;28;20249;-76
2022/09/05 03:46:35;;;;;;;6.75;3.15;;;;;;;17.82;85.37;101248.63;5211302;28;20132;-76
2022/09/05 03:49:35;;;;;;;5.32;3.00;;;;;;;17.86;84.69;101255.44;5200559;28;20510;-76
2022/09/05 03:52:21;;;;;;;4.70;2.90;;;;;;;17.83;85.69;101260.91;5189995;28;20022;-76
2022/09/05 03:54:55;;;;;;;6.72;3.03;;;;;;;17.87;85.69;101263.31;5182607;28;20043;-75
2022/09/05 03:58:11;;;;;;;5.13;2.97;;;;;;;17.81;85.94;101260.16;5209456;28;20026;-76
2022/09/05 04:01:02;;;;;;;4.88;3.05;;;;;;;17.78;86.51;101260.28;5175180;28;20033;-76
2022/09/05 04:03:42;;;;;;;5.93;3.42;;;;;;;17.77;86.74;101269.16;5210232;28;20033;-76
2022/09/05 04:06:48;;;;;;;6.30;3.25;;;;;;;17.77;87.18;101266.50;5204589;28;20116;-77
2022/09/05 04:09:23;;;;;;;4.40;2.85;;;;;;;17.76;87.34;101270.09;5116869;29;20035;-76
2022/09/05 04:11:56;;;;;;;;;;;;;;;17.74;87.20;101274.63;5186706;28;20045;-76
2022/09/05 04:14:46;;;;;;;5.25;2.83;;;;;;;17.80;86.36;101277.78;5211148;28;19921;-77
2022/09/05 04:17:30;;;;;;;4.30;2.78;;;;;;;17.77;86.39;101282.38;5205020;28;20451;-77
2022/09/05 04:20:15;;;;;;;4.93;2.88;;;;;;;17.63;87.08;101284.94;5210253;28;20128;-77
2022/09/05 04:23:10;;;;;;;4.10;2.92;;;;;;;17.55;87.21;101279.19;5203021;28;20029;-76
2022/09/05 04:26:02;;;;;;;4.80;2.83;;;;;;;17.79;86.21;101278.72;5215854;28;20584;-77
2022/09/05 04:28:51;;;;;;;6.97;3.22;;;;;;;17.55;87.27;101287.97;5208263;28;20031;-77
2022/09/05 04:31:52;;;;;;;4.35;2.80;;;;;;;17.53;86.25;101283.69;5188973;28;20039;-77
2022/09/05 04:34:38;;;;;;;4.47;3.00;;;;;;;17.51;86.42;101296.13;5189474;28;20110;-77
2022/09/05 04:37:27;;;;;;;5.60;3.00;;;;;;;17.76;85.97;101285.97;5207785;28;20569;-77
2022/09/05 04:40:36;;;;;;;4.47;2.80;;;;;;;17.68;85.83;101294.31;5203581;28;20041;-76
2022/09/05 04:43:18;;;;;;;4.45;2.92;;;;;;;17.34;87.49;101298.81;5204385;28;20034;-75
2022/09/05 04:46:29;;;;;;;6.93;2.85;;;;;;;17.24;89.21;101295.75;5205781;28;20033;-77
2022/09/05 04:49:13;;;;;;;5.00;3.13;;;;;;;17.23;88.52;101298.47;5192286;28;20039;-77
2022/09/05 04:51:58;;;;;;;7.28;3.00;;;;;;;17.37;87.22;101299.50;5206095;28;20037;-77
2022/09/05 04:54:41;;;;;;;5.47;2.78;;;;;;;17.46;87.22;101300.81;5199444;28;20546;-76
2022/09/05 04:57:48;;;;;;;4.00;2.83;;;;;;;17.48;87.22;101312.16;5211241;28;20033;-77
2022/09/05 05:00:30;;;;;;;6.20;2.90;;;;;;;17.44;88.07;101306.19;5205929;28;20100;-76
2022/09/05 05:03:12;;;;;;;4.60;2.65;;;;;;;17.30;89.45;101310.44;5211581;28;20465;-76
2022/09/05 05:06:07;;;;;;;5.78;3.05;;;;;;;17.34;88.45;101314.66;5204748;28;20021;-76
2022/09/05 05:08:46;;;;;;;5.40;2.70;;;;;;;17.47;88.34;101316.59;5207590;28;20031;-75
2022/09/05 05:11:25;;;;;;;4.18;2.78;;;;;;;17.59;87.00;101312.44;5197072;28;20627;-76
2022/09/05 05:14:02;;;;;;;4.78;2.78;;;;;;;17.52;87.35;101313.72;5189094;28;20029;-76
2022/09/05 05:16:41;;;;;;;4.70;2.60;;;;;;;17.52;86.90;101324.28;5190569;28;20056;-76
2022/09/05 05:19:44;;;;;;;7.22;2.90;;;;;;;17.36;89.17;101326.88;5210137;28;20029;-76
2022/09/05 05:22:16;;;;;;;6.03;3.15;;;;;;;17.41;89.96;101329.25;5203909;28;20466;-76
2022/09/05 05:24:52;;;;;;;7.97;2.95;;;;;;;17.47;88.68;101334.25;5200506;28;20399;-76
2022/09/05 05:27:54;;;;;;;7.85;2.65;;;;;;;17.46;89.63;101329.91;5209311;28;20439;-75
2022/09/05 05:30:29;;;;;;;4.65;2.85;;;;;;;17.60;88.56;101332.66;5187900;28;20087;-77
2022/09/05 05:33:07;;;;;;;;;;;;;;;17.63;88.69;101337.81;5207161;28;20579;-77
2022/09/05 05:35:38;;;;;;;4.32;2.85;;;;;;;17.82;87.48;101335.91;5207974;28;19916;-76
2022/09/05 05:38:12;;;;;;;5.03;3.05;;;;;;;17.72;87.91;101342.59;5201522;28;20411;-74
2022/09/05 05:40:59;;;;;;;4.32;2.58;;;;;;;17.83;87.11;101345.53;5194241;28;20025;-76
2022/09/05 05:43:42;;;;;;;3.65;2.70;;;;;;;17.84;86.88;101344.59;5205459;28;20902;-75
2022/09/05 05:46:23;;;;;;;6.18;2.67;;;;;;;17.96;86.31;101343.94;5207853;28;20092;-76
2022/09/05 05:49:06;;;;;;;3.72;2.33;;;;;;;18.00;86.42;101348.16;5204792;28;20018;-76
2022/09/05 05:51:41;;;;;;;4.05;2.60;;;;;;;18.09;85.76;101345.84;5209708;28;20036;-76
2022/09/05 05:54:39;;;;;;;3.65;2.60;;;;;;;18.15;84.80;101349.97;5209265;28;20025;-76
2022/09/05 05:57:43;;;;;;;4.15;2.70;;;;;;;18.19;84.79;101356.78;5168432;28;20086;-77
2022/09/05 06:00:13;;;;;;;4.60;2.42;;;;;;;18.27;85.14;101352.81;5206374;28;20508;-76
2022/09/05 06:02:46;;;;;;;5.47;2.80;;;;;;;18.17;85.89;101353.38;5214073;28;20089;-77
2022/09/05 06:05:39;;;;;;;4.18;2.70;;;;;;;18.46;84.91;101353.53;5216154;28;20804;-77
2022/09/05 06:08:33;;;;;;;5.13;2.17;;;;;;;18.66;85.25;101355.91;5168166;28;20037;-75
2022/09/05 06:11:45;;;;;;;4.30;2.60;;;;;;;18.67;83.90;101354.13;5206335;28;20025;-77
2022/09/05 06:14:58;;;;;;;6.00;2.50;;;;;;;18.88;82.13;101346.66;5185508;28;20043;-77
2022/09/05 06:17:53;;;;;;;3.45;2.42;;;;;;;18.69;83.88;101353.06;5210616;28;20025;-77
2022/09/05 06:20:40;;;;;;;6.43;2.70;;;;;;;19.14;82.73;101351.28;5210336;28;20655;-77
2022/09/05 06:23:52;;;;;;;6.75;2.60;;;;;;;19.39;80.96;101350.72;5189092;28;20091;-75
2022/09/05 06:26:53;;;;;;;3.78;2.42;;;;;;;19.25;81.86;101343.59;5207373;28;20111;-77
2022/09/05 06:29:33;;;;;;;4.20;2.60;;;;;;;19.49;81.89;101343.94;5191281;28;20025;-77
2022/09/05 06:32:25;;;;;;;4.93;2.80;;;;;;;19.69;80.55;101341.81;5213996;28;20064;-77
2022/09/05 06:35:26;;;;;;;5.43;2.58;;;;;;;19.87;79.42;101337.16;5214305;28;20491;-78
2022/09/05 06:38:25;;;;;;;4.90;2.80;;;;;;;20.11;79.23;101341.84;5208063;28;20131;-76
2022/09/05 06:41:12;;;;;;;4.78;2.63;;;;;;;20.13;79.05;101342.59;5210440;28;20033;-77
2022/09/05 06:44:14;;;;;;;4.53;3.03;;;;;;;20.24;78.91;101350.75;5206390;28;20112;-77
2022/09/05 06:46:48;;;;;;;4.18;2.80;;;;;;;20.34;78.08;101351.91;5205330;28;20533;-74
2022/09/05 06:49:18;;;;;;;7.30;2.78;;;;;;;20.50;77.95;101347.28;5213618;28;20108;-73
2022/09/05 06:52:04;;;;;;;6.68;2.88;;;;;;;20.72;76.74;101347.63;5212551;28;20175;-77
2022/09/05 06:54:59;;;;;;;6.28;2.80;;;;;;;20.85;77.87;101353.84;5202724;28;20105;-75
2022/09/05 06:57:46;;;;;;;3.70;2.55;;;;;;;21.11;76.63;101355.66;5209776;28;20727;-78
2022/09/05 07:00:29;;;;;;;6.03;3.05;;;;;;;22.54;72.49;101349.13;5202546;28;20507;-76
2022/09/05 07:03:27;;;;;;;6.35;2.50;;;;;;;24.36;67.10;101336.72;5204875;28;20107;-77
2022/09/05 07:06:19;;;;;;;7.28;2.67;;;;;;;24.74;65.50;101338.00;5210154;28;20057;-78
2022/09/05 07:09:01;;;;;;;6.95;2.70;;;;;;;24.80;64.53;101332.16;5218057;22;20132;-72
2022/09/05 07:11:52;;;;;;;3.78;2.30;;;;;;;25.30;62.76;101344.91;5201942;28;20021;-73
2022/09/05 07:14:58;;;;;;;5.00;2.80;;;;;;;24.96;64.04;101352.16;5208750;28;20036;-74
2022/09/05 07:17:58;;;;;;;4.07;2.60;;;;;;;25.21;63.48;101345.66;5167644;28;20033;-75
2022/09/05 07:20:35;;;;;;;5.15;2.40;;;;;;;25.34;62.72;101351.69;5189294;28;20025;-73
2022/09/05 07:23:39;;;;;;;4.93;2.50;;;;;;;25.54;62.00;101358.88;5185226;28;20486;-73
2022/09/05 07:26:10;;;;;;;5.72;2.58;;;;;;;25.82;61.31;101355.53;5188061;28;20032;-72
2022/09/05 07:28:44;;;;;;;4.32;2.38;;;;;;;25.45;61.39;101362.34;5188927;28;20030;-72
2022/09/05 07:31:25;;;;;;;6.53;2.35;;;;;;;25.87;60.85;101367.56;5177050;28;20037;-72
2022/09/05 07:34:15;;;;;;;4.65;2.60;;;;;;;25.60;61.13;101356.53;5187054;28;20096;-72
2022/09/05 07:36:48;;;;;;;8.48;2.90;;;;;;;25.81;61.10;101359.19;5183024;28;20033;-72
2022/09/05 07:39:26;;;;;;;4.25;2.65;;;;;;;26.05;61.48;101367.81;5190162;28;20029;-72
2022/09/05 07:42:01;;;;;;;5.30;2.70;;;;;;;26.31;61.09;101361.03;5188923;28;20480;-74
2022/09/05 07:44:34;;;;;;;4.25;2.50;;;;;;;26.36;60.03;101356.09;5189239;28;20036;-71
2022/09/05 07:47:14;;;;;;;5.65;2.40;;;;;;;26.26;60.59;101363.25;5190802;28;20072;-72
2022/09/05 07:49:46;;;;;;;4.35;2.42;;;;;;;26.84;59.72;101361.50;5183816;28;20042;-74
2022/09/05 07:52:20;;;;;;;5.93;2.70;;;;;;;26.14;61.25;101365.19;5188611;28;20022;-74
2022/09/05 07:54:53;;;;;;;6.47;2.60;;;;;;;26.45;60.71;101369.53;5181128;28;20526;-74
2022/09/05 07:57:31;;;;;;;8.75;2.75;;;;;;;26.18;60.74;101369.28;5170704;28;20046;-72
2022/09/05 08:00:09;;;;;;;4.20;2.78;;;;;;;27.09;59.49;101363.63;5186868;28;20069;-72
2022/09/05 08:02:46;;;;;;;7.25;2.65;;;;;;;27.33;58.75;101358.72;5179105;28;20033;-72
2022/09/05 08:05:20;;;;;;;4.85;2.42;;;;;;;26.95;59.47;101369.41;5183240;28;20018;-72
2022/09/05 08:07:54;;;;;;;6.55;2.53;;;;;;;27.68;58.79;101358.97;5190395;28;20021;-72
2022/09/05 08:10:29;;;;;;;5.95;2.58;;;;;;;27.34;58.38;101365.78;5189216;28;20112;-72
2022/09/05 08:13:28;;;;;;;6.38;2.90;;;;;;;27.84;58.47;101355.69;5189682;28;20040;-72
2022/09/05 08:16:00;;;;;;;7.18;2.65;;;;;;;27.57;58.03;101377.91;5177179;28;20112;-72
2022/09/05 08:18:39;;;;;;;4.03;2.90;;;;;;;27.95;57.88;101356.38;5189155;28;20026;-72
2022/09/05 08:21:30;;;;;;;5.05;2.72;;;;;;;28.24;57.61;101361.63;5188256;28;20018;-72
2022/09/05 08:24:19;;;;;;;6.93;2.90;;;;;;;27.52;59.09;101358.72;5178182;28;20038;-72
2022/09/05 08:27:08;;;;;;;6.93;2.67;;;;;;;28.73;56.67;101354.06;5187806;28;20053;-72
2022/09/05 08:29:42;;;;;;;4.97;2.50;;;;;;;28.63;57.56;101361.31;5187869;28;20025;-72
2022/09/05 08:32:13;;;;;;;5.03;2.90;;;;;;;28.19;58.17;101359.41;5179000;28;20056;-73
2022/09/05 08:34:53;;;;;;;4.88;2.90;;;;;;;28.06;57.79;101358.88;5187802;28;20065;-72
2022/09/05 08:37:25;;;;;;;6.38;3.20;;;;;;;28.39;57.40;101349.44;5189121;28;20071;-72
2022/09/05 08:40:05;;;;;;;6.00;3.10;;;;;;;29.35;56.64;101344.09;5188130;28;20030;-72
2022/09/05 08:42:49;;;;;;;5.82;2.70;;;;;;;29.21;56.22;101354.59;5188005;28;20108;-72
2022/09/05 08:45:41;;;;;;;5.80;2.60;;;;;;;28.80;57.14;101355.13;5168207;28;20033;-72
2022/09/05 08:48:18;;;;;;;4.57;2.80;;;;;;;28.64;56.53;101356.81;5185916;28;20450;-72
2022/09/05 08:51:06;;;;;;;5.72;2.65;;;;;;;28.84;56.58;101346.59;5185596;28;20033;-72
2022/09/05 08:54:05;;;;;;;7.05;2.90;;;;;;;28.62;57.19;101358.81;5181505;28;20266;-72
2022/09/05 08:56:45;;;;;;;10.52;2.72;;;;;;;28.71;57.16;101347.97;5186490;28;20465;-71
2022/09/05 08:59:25;;;;;;;7.65;2.70;;;;;;;28.36;57.37;101344.34;5183649;28;20030;-72
2022/09/05 09:02:14;;;;;;;5.38;2.92;;;;;;;27.93;58.49;101346.78;5178890;28;20036;-72
2022/09/05 09:04:58;;;;;;;8.70;2.92;;;;;;;28.38;58.37;101326.22;5169749;28;20120;-72
2022/09/05 09:07:41;;;;;;;5.68;3.00;;;;;;;28.83;56.52;101331.47;5187792;28;20025;-71
2022/09/05 09:10:26;;;;;;;6.57;2.65;;;;;;;28.01;57.61;101323.53;5185213;28;20076;-72
2022/09/05 09:13:16;;;;;;;3.70;2.50;;;;;;;28.00;57.80;101323.66;5187117;28;20567;-72
2022/09/05 09:16:09;;;;;;;6.15;2.90;;;;;;;28.46;56.41;101323.63;5183653;28;20212;-72
2022/09/05 09:18:48;;;;;;;3.90;2.60;;;;;;;27.67;58.40;101322.34;5185928;28;20033;-72
2022/09/05 09:21:24;;;;;;;3.85;2.50;;;;;;;28.13;57.14;101321.50;5185369;28;20022;-72
2022/09/05 09:24:05;;;;;;;;;;;;;;;27.70;57.79;101326.56;5179889;28;20471;-72
2022/09/05 09:26:55;;;;;;;6.03;2.78;;;;;;;27.40;59.69;101324.94;5185364;28;19972;-72
2022/09/05 09:29:27;;;;;;;9.38;3.60;;;;;;;26.97;60.44;101321.78;5182915;28;20022;-74
2022/09/05 09:32:06;;;;;;;4.68;2.80;;;;;;;26.45;60.42;101328.44;5177891;28;20464;-74
2022/09/05 09:35:08;;;;;;;6.97;2.83;;;;;;;26.68;60.91;101321.91;5185431;28;20117;-73
2022/09/05 09:37:57;;;;;;;4.97;2.70;;;;;;;26.77;60.48;101314.72;5151009;28;20552;-74
2022/09/05 09:40:45;;;;;;;8.70;3.75;;;;;;;26.53;60.98;101310.72;5185828;28;20034;-74
2022/09/05 09:43:26;;;;;;;11.00;3.05;;;;;;;26.68;61.45;101311.19;5165986;28;20029;-74
2022/09/05 09:46:19;;;;;;;7.15;2.90;;;;;;;26.83;61.58;101306.13;5187397;28;20260;-74
2022/09/05 09:49:02;;;;;;;4.57;2.60;;;;;;;26.53;60.53;101312.56;5182585;28;20387;-73
2022/09/05 09:52:07;;;;;;;11.73;3.15;;;;;;;26.51;61.80;101312.69;5188703;28;20088;-73
2022/09/05 09:54:38;;;;;;;6.05;2.97;;;;;;;26.75;60.97;101303.28;5158642;28;20018;-74
2022/09/05 09:57:47;;;;;;;6.15;2.97;;;;;;;26.68;61.40;101305.81;5187446;28;20067;-73
2022/09/05 10:00:20;;;;;;;5.53;3.03;;;;;;;26.67;61.48;101293.41;5183506;28;20529;-73
2022/09/05 10:03:18;;;;;;;5.65;2.83;;;;;;;26.83;61.04;101290.03;5188935;28;20036;-73
2022/09/05 10:06:18;;;;;;;7.18;2.67;;;;;;;26.60;60.84;101287.75;5185491;28;20387;-73
2022/09/05 10:08:57;;;;;;;6.55;2.88;;;;;;;26.65;61.77;101285.47;5182296;28;20026;-73
2022/09/05 10:11:48;;;;;;;11.43;3.50;;;;;;;26.51;61.54;101285.88;5188217;28;20186;-73
2022/09/05 10:14:36;;;;;;;10.18;3.13;;;;;;;26.56;61.37;101286.31;5182914;28;20037;-73
2022/09/05 10:17:28;;;;;;;7.38;2.90;;;;;;;26.56;60.65;101282.78;5185626;28;20384;-73
2022/09/05 10:20:05;;;;;;;9.00;3.15;;;;;;;26.55;61.76;101291.81;5185926;28;20076;-73
2022/09/05 10:22:49;;;;;;;7.00;3.10;;;;;;;26.73;61.77;101282.09;5184826;28;20029;-73
2022/09/05 10:25:28;;;;;;;7.70;3.10;;;;;;;26.63;61.24;101287.44;5182650;28;20059;-72
2022/09/05 10:28:03;;;;;;;5.72;2.80;;;;;;;26.70;60.94;101277.84;5187165;28;20127;-73
2022/09/05 10:31:00;;;;;;;8.27;3.15;;;;;;;26.74;60.32;101274.75;5187279;28;20029;-73
2022/09/05 10:34:08;;;;;;;10.15;2.67;;;;;;;26.73;60.87;101274.06;5187248;28;20025;-73
2022/09/05 10:36:44;;;;;;;8.63;2.80;;;;;;;26.63;60.33;101266.00;5180147;28;20026;-73
2022/09/05 10:39:18;;;;;;;4.10;2.60;;;;;;;26.65;60.63;101272.06;5181333;28;20044;-74
2022/09/05 10:41:52;;;;;;;10.57;2.80;;;;;;;26.57;60.37;101271.94;5189546;28;20037;-73
2022/09/05 10:44:46;;;;;;;3.90;2.33;;;;;;;26.81;60.13;101264.31;5187636;28;20133;-74
2022/09/05 10:47:38;;;;;;;3.88;2.50;;;;;;;26.42;60.91;101256.31;5186086;28;20467;-73
2022/09/05 10:50:14;;;;;;;4.53;2.38;;;;;;;26.73;60.48;101271.38;5190088;28;20031;-73
2022/09/05 10:52:58;;;;;;;7.55;2.50;;;;;;;26.75;59.52;101260.34;5183988;28;20418;-73
2022/09/05 10:56:09;;;;;;;7.45;2.50;;;;;;;26.60;59.84;101255.56;5184973;28;20395;-73
2022/09/05 10:58:59;;;;;;;4.32;2.35;;;;;;;26.80;60.59;101252.72;5188772;28;20069;-73
2022/09/05 11:01:32;;;;;;;6.93;2.85;;;;;;;26.71;59.65;101250.03;5189914;28;20033;-73
2022/09/05 11:04:12;;;;;;;7.50;2.47;;;;;;;26.63;60.13;101246.34;5190014;28;20454;-73
2022/09/05 11:07:00;;;;;;;10.27;3.00;;;;;;;26.50;59.65;101245.81;5162876;28;20061;-73
2022/09/05 11:09:58;;;;;;;6.22;2.55;;;;;;;26.51;60.37;101244.81;5177972;28;20117;-73
2022/09/05 11:12:53;;;;;;;5.38;2.33;;;;;;;26.60;60.07;101239.47;5182961;28;20032;-74
2022/09/05 11:15:30;;;;;;;4.53;2.38;;;;;;;26.66;59.67;101233.53;5187603;28;20025;-74
2022/09/05 11:18:07;;;;;;;7.88;2.50;;;;;;;26.84;60.25;101230.00;5190671;28;20282;-73
2022/09/05 11:20:53;;;;;;;9.38;2.50;;;;;;;26.65;59.01;101229.13;5190383;28;20033;-73
2022/09/05 11:23:46;;;;;;;7.53;2.53;;;;;;;26.71;59.06;101236.63;5182353;28;20034;-74
2022/09/05 11:26:22;;;;;;;5.35;2.70;;;;;;;26.65;59.43;101229.13;5188589;28;20029;-73
2022/09/05 11:29:00;;;;;;;5.13;2.30;;;;;;;26.76;59.78;101227.16;5189090;28;20365;-73
2022/09/05 11:31:40;;;;;;;5.82;2.40;;;;;;;26.70;59.67;101220.69;5190947;28;20091;-73
2022/09/05 11:34:24;;;;;;;5.50;2.15;;;;;;;26.81;59.07;101218.69;5192736;28;20475;-73
2022/09/05 11:37:00;;;;;;;6.43;2.60;;;;;;;26.67;59.23;101220.97;5180693;28;20138;-73
2022/09/05 11:39:57;;;;;;;5.20;2.35;;;;;;;26.83;59.39;101217.56;5186438;28;20041;-73
2022/09/05 11:42:49;;;;;;;5.45;2.20;;;;;;;26.87;58.68;101212.75;5188974;28;20112;-73
2022/09/05 11:45:36;;;;;;;4.05;2.35;;;;;;;26.91;58.33;101212.31;5186759;28;20538;-73
2022/09/05 11:48:28;;;;;;;5.38;2.35;;;;;;;27.09;59.67;101212.47;5170110;28;20022;-72
2022/09/05 11:51:22;;;;;;;4.18;2.30;;;;;;;27.11;59.04;101214.03;5189051;28;20314;-73
2022/09/05 11:53:58;;;;;;;5.93;2.30;;;;;;;27.06;59.59;101208.22;5180639;28;20056;-73
2022/09/05 11:56:49;;;;;;;6.45;2.10;;;;;;;27.17;58.91;101220.66;5187404;28;20033;-73
2022/09/05 11:59:40;;;;;;;5.95;2.30;;;;;;;27.17;58.19;101213.47;5185786;28;20590;-73
2022/09/05 12:02:48;;;;;;;4.85;2.40;;;;;;;26.82;58.52;101221.25;5188296;28;20026;-73
2022/09/05 12:06:01;;;;;;;4.63;2.00;;;;;;;27.06;58.89;101215.41;5185663;28;20479;-73
2022/09/05 12:08:34;;;;;;;4.68;2.10;;;;;;;26.88;58.48;101207.25;5181416;28;20029;-74
2022/09/05 12:11:27;;;;;;;4.78;2.20;;;;;;;27.16;57.88;101202.84;5188811;28;20025;-72
2022/09/05 12:14:23;;;;;;;5.03;2.38;;;;;;;26.86;58.24;101209.22;5188489;28;20025;-73
2022/09/05 12:17:17;;;;;;;3.80;2.08;;;;;;;26.94;58.48;101201.28;5184318;28;20092;-73
2022/09/05 12:20:02;;;;;;;4.85;2.33;;;;;;;27.04;57.96;101194.09;5185858;28;20025;-73
2022/09/05 12:22:36;;;;;;;3.40;2.00;;;;;;;26.95;58.54;101189.56;5187420;28;20419;-73
2022/09/05 12:25:38;;;;;;;7.65;1.88;;;;;;;27.06;57.97;101191.25;5182831;28;20087;-73
2022/09/05 12:28:14;;;;;;;9.27;2.30;;;;;;;27.12;58.08;101185.34;5189570;28;20108;-73
2022/09/05 12:30:45;;;;;;;5.13;1.92;;;;;;;27.26;57.86;101183.03;5183654;28;20030;-73
2022/09/05 12:33:23;;;;;;;2.95;1.80;;;;;;;27.25;57.69;101177.84;5190603;28;20029;-73
2022/09/05 12:36:18;;;;;;;4.90;1.92;;;;;;;27.18;57.80;101176.69;5189721;28;20029;-73
2022/09/05 12:39:00;;;;;;;4.65;2.22;;;;;;;27.20;58.08;101177.41;5184536;28;20091;-73
2022/09/05 12:42:03;;;;;;;6.88;2.20;;;;;;;27.36;58.45;101183.88;5189152;28;20029;-73
2022/09/05 12:44:42;;;;;;;4.22;1.80;;;;;;;27.28;58.17;101167.63;5172759;28;20041;-73
2022/09/05 12:47:16;;;;;;;4.38;1.80;;;;;;;27.17;57.38;101166.97;5182298;28;20022;-73
2022/09/05 12:50:01;;;;;;;7.97;2.10;;;;;;;27.35;57.89;101158.00;5191151;28;20387;-73
2022/09/05 12:52:36;;;;;;;5.38;2.20;;;;;;;27.05;57.39;101163.56;5188152;28;20033;-73
2022/09/05 12:55:31;;;;;;;4.05;2.03;;;;;;;27.16;57.50;101166.13;5179730;28;20419;-72